Time;durP1;ratioP1;P1;durP2;ratioP2;P2;SDS_P1;SDS_P2;PMS_P1;PMS_P2;Temp;Humidity;BMP_temperature;BMP_pressure;BME280_temperature;BME280_humidity;BME280_pressure;Samples;Min_cycle;Max_cycle;Signal;HPM_P1;HPM_P2
2024/01/28 00:01:12;;;;;;;;;;;;;;;21.75;30.96;103284.69;5043914;28;19920;-77
2024/01/28 00:03:37;;;;;;;;;;;;;;;21.71;31.00;103272.41;5050494;28;19967;-77
2024/01/28 00:06:03;;;;;;;;;;;;;;;21.69;31.03;103272.50;5047917;28;19996;-77
2024/01/28 00:08:29;;;;;;;;;;;;;;;21.67;30.80;103260.09;5033473;28;19921;-78
2024/01/28 00:10:54;;;;;;;;;;;;;;;21.63;31.01;103262.22;5039434;28;19949;-78
2024/01/28 00:13:23;;;;;;;;;;;;;;;21.61;31.10;103258.75;5036800;28;19941;-77
2024/01/28 00:15:49;;;;;;;;;;;;;;;21.57;31.09;103262.72;5034777;28;19987;-77
2024/01/28 00:18:14;;;;;;;;;;;;;;;21.55;31.02;103253.88;5039941;28;19917;-77
2024/01/28 00:20:39;;;;;;;;;;;;;;;21.53;31.07;103263.97;5039617;28;19913;-77
2024/01/28 00:23:04;;;;;;;;;;;;;;;21.50;31.26;103253.41;5048540;28;19913;-77
2024/01/28 00:25:29;;;;;;;;;;;;;;;21.46;30.99;103251.94;5043304;28;19921;-77
2024/01/28 00:27:55;;;;;;;;;;;;;;;21.43;31.07;103250.34;5040929;28;20413;-77
2024/01/28 00:30:20;;;;;;;;;;;;;;;21.42;31.33;103250.47;5037878;28;19951;-78
2024/01/28 00:32:45;;;;;;;;;;;;;;;21.40;31.37;103247.88;5032960;28;19921;-78
2024/01/28 00:35:10;;;;;;;;;;;;;;;21.37;31.19;103250.03;5027712;28;20023;-76
2024/01/28 00:37:36;;;;;;;;;;;;;;;21.34;31.13;103237.59;5041866;28;19921;-78
2024/01/28 00:40:03;;;;;;;;;;;;;;;21.33;31.41;103245.84;5043188;28;19924;-78
2024/01/28 00:42:28;;;;;;;;;;;;;;;21.31;31.12;103234.25;5034236;28;19913;-77
2024/01/28 00:44:54;;;;;;;;;;;;;;;21.28;31.33;103231.78;5035489;28;19924;-77
2024/01/28 00:47:19;;;;;;;;;;;;;;;21.25;31.26;103232.91;5043330;28;19917;-77
2024/01/28 00:49:44;;;;;;;;;;;;;;;21.23;31.26;103234.88;5043416;28;19913;-77
2024/01/28 00:52:09;;;;;;;;;;;;;;;21.20;31.22;103238.72;5041874;28;19963;-77
2024/01/28 00:54:34;;;;;;;;;;;;;;;21.19;31.53;103236.97;5037171;28;20456;-77
2024/01/28 00:57:00;;;;;;;;;;;;;;;21.17;31.53;103227.28;5040285;28;19919;-75
2024/01/28 00:59:25;;;;;;;;;;;;;;;21.14;31.49;103228.38;5037684;28;19921;-78
2024/01/28 01:01:50;;;;;;;;;;;;;;;21.13;31.22;103233.94;5044811;28;19913;-76
2024/01/28 01:04:15;;;;;;;;;;;;;;;21.12;31.49;103234.94;5042396;28;20389;-78
2024/01/28 01:06:44;;;;;;;;;;;;;;;21.09;31.27;103236.03;5036093;28;19923;-78
2024/01/28 01:09:09;;;;;;;;;;;;;;;21.07;31.38;103243.44;5041686;28;19922;-78
2024/01/28 01:11:34;;;;;;;;;;;;;;;21.05;31.63;103245.38;5033043;28;19975;-78
2024/01/28 01:13:59;;;;;;;;;;;;;;;21.04;31.62;103242.81;5048538;28;19914;-75
2024/01/28 01:16:25;;;;;;;;;;;;;;;21.02;31.55;103242.06;5045953;28;19917;-77
2024/01/28 01:18:50;;;;;;;;;;;;;;;21.01;31.28;103240.34;5043924;28;19922;-76
2024/01/28 01:21:15;;;;;;;;;;;;;;;20.99;31.63;103245.03;5046665;28;19928;-77
2024/01/28 01:23:40;;;;;;;;;;;;;;;20.96;31.63;103246.13;5037364;28;19955;-77
2024/01/28 01:26:06;;;;;;;;;;;;;;;20.95;31.42;103242.59;5033522;28;20285;-78
2024/01/28 01:28:34;;;;;;;;;;;;;;;20.93;31.67;103240.97;5042177;28;19920;-77
2024/01/28 01:30:59;;;;;;;;;;;;;;;20.90;31.38;103242.09;5041865;28;20000;-77
2024/01/28 01:33:25;;;;;;;;;;;;;;;20.89;31.43;103242.22;5047163;28;19917;-76
2024/01/28 01:35:50;;;;;;;;;;;;;;;20.87;31.37;103246.91;5044196;28;19936;-76
2024/01/28 01:38:15;;;;;;;;;;;;;;;20.85;31.75;103249.72;5038734;28;19916;-77
2024/01/28 01:40:40;;;;;;;;;;;;;;;20.83;31.43;103249.00;5036286;28;19917;-77
2024/01/28 01:43:08;;;;;;;;;;;;;;;20.81;31.71;103245.53;5041012;28;19940;-77
2024/01/28 01:45:34;;;;;;;;;;;;;;;20.79;31.38;103239.41;5044348;28;19924;-77
2024/01/28 01:47:59;;;;;;;;;;;;;;;20.78;31.51;103240.41;5041912;28;19913;-77
2024/01/28 01:50:24;;;;;;;;;;;;;;;20.75;31.42;103232.53;5043289;28;19964;-78
2024/01/28 01:52:49;;;;;;;;;;;;;;;20.73;31.62;103231.81;5042138;28;19914;-77
2024/01/28 01:55:15;;;;;;;;;;;;;;;20.70;31.60;103222.09;5037120;28;19921;-77
2024/01/28 01:57:42;;;;;;;;;;;;;;;20.69;31.45;103228.50;5044767;28;20392;-77
2024/01/28 02:00:08;;;;;;;;;;;;;;;20.65;31.58;103218.91;5043101;28;19913;-78
2024/01/28 02:02:33;;;;;;;;;;;;;;;20.63;31.49;103220.84;5036951;28;19919;-77
2024/01/28 02:04:58;;;;;;;;;;;;;;;20.61;31.73;103217.44;5034745;28;19944;-77
2024/01/28 02:07:24;;;;;;;;;;;;;;;20.61;31.76;103213.88;5042395;28;19917;-76
2024/01/28 02:09:49;;;;;;;;;;;;;;;20.58;31.71;103206.84;5044742;28;19967;-77
2024/01/28 02:12:14;;;;;;;;;;;;;;;20.58;31.76;103197.91;5047456;28;19913;-77
2024/01/28 02:14:40;;;;;;;;;;;;;;;20.56;31.63;103199.84;5034769;28;20009;-77
2024/01/28 02:17:05;;;;;;;;;;;;;;;20.54;31.56;103199.13;5032230;28;20297;-78
2024/01/28 02:19:30;;;;;;;;;;;;;;;20.51;31.53;103189.41;5043505;28;19918;-77
2024/01/28 02:21:56;;;;;;;;;;;;;;;20.51;31.50;103189.41;5037669;28;19913;-78
2024/01/28 02:24:21;;;;;;;;;;;;;;;20.48;31.85;103195.09;5032297;28;19913;-75
2024/01/28 02:26:46;;;;;;;;;;;;;;;20.46;31.56;103194.31;5042448;28;19964;-77
2024/01/28 02:29:11;;;;;;;;;;;;;;;20.44;31.61;103185.47;5041679;28;19917;-77
2024/01/28 02:31:36;;;;;;;;;;;;;;;20.42;31.61;103190.97;5048933;28;19916;-77
2024/01/28 02:34:01;;;;;;;;;;;;;;;20.42;31.58;103187.41;5044584;28;20469;-77
2024/01/28 02:36:28;;;;;;;;;;;;;;;20.40;31.70;103192.09;5043983;28;20069;-78
2024/01/28 02:38:54;;;;;;;;;;;;;;;20.38;31.86;103194.91;5036922;28;19917;-77
2024/01/28 02:41:19;;;;;;;;;;;;;;;20.37;31.70;103190.50;5039496;28;19924;-77
2024/01/28 02:43:44;;;;;;;;;;;;;;;20.34;31.67;103187.19;5044688;28;19913;-76
2024/01/28 02:46:10;;;;;;;;;;;;;;;20.31;31.73;103187.44;5042902;28;19913;-77
2024/01/28 02:48:35;;;;;;;;;;;;;;;20.29;31.98;103192.09;5040881;28;20433;-77
2024/01/28 02:51:00;;;;;;;;;;;;;;;20.28;31.72;103193.94;5034246;28;19913;-77
2024/01/28 02:53:25;;;;;;;;;;;;;;;20.27;31.76;103192.22;5036537;28;19913;-77
2024/01/28 02:55:50;;;;;;;;;;;;;;;20.26;31.68;103186.94;5038324;28;20003;-76
2024/01/28 02:58:16;;;;;;;;;;;;;;;20.22;31.69;103184.50;5040994;28;19917;-77
2024/01/28 03:00:41;;;;;;;;;;;;;;;20.21;31.68;103182.75;5039488;28;19949;-77
2024/01/28 03:03:07;;;;;;;;;;;;;;;20.20;32.02;103163.97;5036273;28;19916;-77
2024/01/28 03:05:32;;;;;;;;;;;;;;;20.18;31.81;103164.09;5033096;28;19914;-77
2024/01/28 03:07:58;;;;;;;;;;;;;;;20.16;31.71;103151.69;5035961;28;19917;-76
2024/01/28 03:10:23;;;;;;;;;;;;;;;20.14;31.85;103157.22;5040848;28;19918;-77
2024/01/28 03:12:51;;;;;;;;;;;;;;;20.14;31.91;103153.69;5041691;28;19974;-75
2024/01/28 03:15:19;;;;;;;;;;;;;;;20.12;31.96;103142.13;5029833;28;19913;-76
2024/01/28 03:17:44;;;;;;;;;;;;;;;20.10;31.81;103146.78;5035001;28;20732;-76
2024/01/28 03:20:10;;;;;;;;;;;;;;;20.08;32.08;103144.19;5041368;28;19928;-76
2024/01/28 03:22:35;;;;;;;;;;;;;;;20.08;31.81;103140.63;5044025;28;19920;-77
2024/01/28 03:25:00;;;;;;;;;;;;;;;20.06;31.86;103140.78;5044605;28;19920;-76
2024/01/28 03:27:25;;;;;;;;;;;;;;;20.06;31.86;103134.50;5039451;28;19920;-77
2024/01/28 03:29:51;;;;;;;;;;;;;;;20.04;31.94;103128.38;5037538;28;19997;-77
2024/01/28 03:32:16;;;;;;;;;;;;;;;20.04;31.99;103133.75;5039360;28;19913;-77
2024/01/28 03:34:41;;;;;;;;;;;;;;;20.02;32.03;103131.19;5030846;28;19917;-77
2024/01/28 03:37:06;;;;;;;;;;;;;;;20.00;31.88;103135.84;5034227;28;19920;-77
2024/01/28 03:39:31;;;;;;;;;;;;;;;20.00;31.69;103143.94;5037410;28;19916;-77
2024/01/28 03:41:56;;;;;;;;;;;;;;;19.99;31.99;103139.53;5049339;28;19947;-77
2024/01/28 03:44:23;;;;;;;;;;;;;;;19.99;31.80;103139.53;5045334;28;19962;-77
2024/01/28 03:46:49;;;;;;;;;;;;;;;19.99;31.90;103142.22;5043005;28;19913;-76
2024/01/28 03:49:14;;;;;;;;;;;;;;;19.99;31.92;103139.53;5040876;28;19939;-77
2024/01/28 03:51:39;;;;;;;;;;;;;;;19.99;31.93;103136.84;5036819;28;19957;-77
2024/01/28 03:54:04;;;;;;;;;;;;;;;19.98;31.90;103122.47;5037888;28;19923;-77
2024/01/28 03:56:29;;;;;;;;;;;;;;;20.00;31.84;103125.03;5042057;28;19928;-77
2024/01/28 03:58:55;;;;;;;;;;;;;;;20.00;31.78;103124.19;5041767;28;19920;-77
2024/01/28 04:01:29;;;;;;;;;;;;;;;20.00;31.73;103121.50;5038663;28;19917;-76
2024/01/28 04:03:57;;;;;;;;;;;;;;;20.01;31.75;103112.41;5035847;28;19949;-77
2024/01/28 04:06:22;;;;;;;;;;;;;;;20.01;31.84;103121.38;5042663;28;19923;-77
2024/01/28 04:08:49;;;;;;;;;;;;;;;20.02;31.75;103112.28;5039341;28;19989;-77
2024/01/28 04:11:14;;;;;;;;;;;;;;;20.01;31.82;103113.28;5032136;28;19978;-77
2024/01/28 04:13:39;;;;;;;;;;;;;;;20.03;31.85;103116.72;5035170;28;20366;-78
2024/01/28 04:16:05;;;;;;;;;;;;;;;20.03;31.42;103105.06;5038822;28;19924;-77
2024/01/28 04:18:30;;;;;;;;;;;;;;;20.04;31.61;103110.31;5035791;28;20028;-77
2024/01/28 04:20:55;;;;;;;;;;;;;;;20.04;31.57;103104.91;5042283;28;19920;-77
2024/01/28 04:23:21;;;;;;;;;;;;;;;20.05;31.42;103105.78;5041206;28;19921;-77
2024/01/28 04:25:46;;;;;;;;;;;;;;;20.04;31.69;103104.91;5038601;28;19920;-77
2024/01/28 04:28:11;;;;;;;;;;;;;;;20.07;31.36;103104.69;5043193;28;19939;-76
2024/01/28 04:30:36;;;;;;;;;;;;;;;20.09;31.56;103101.84;5042751;28;19940;-77
2024/01/28 04:33:01;;;;;;;;;;;;;;;20.09;31.33;103101.84;5044443;28;19913;-77
2024/01/28 04:35:27;;;;;;;;;;;;;;;20.10;31.56;103103.59;5048163;28;19921;-76
2024/01/28 04:37:52;;;;;;;;;;;;;;;20.09;31.58;103091.94;5040211;28;19929;-78
2024/01/28 04:40:17;;;;;;;;;;;;;;;20.11;31.46;103091.78;5046916;28;19917;-75
2024/01/28 04:42:42;;;;;;;;;;;;;;;20.11;31.11;103092.66;5046124;28;19913;-78
2024/01/28 04:45:08;;;;;;;;;;;;;;;20.12;31.30;103094.34;5038342;28;19928;-77
2024/01/28 04:47:34;;;;;;;;;;;;;;;20.13;31.23;103087.13;5033609;28;19920;-75
2024/01/28 04:49:59;;;;;;;;;;;;;;;20.14;31.36;103088.84;5036616;28;20313;-77
2024/01/28 04:52:24;;;;;;;;;;;;;;;20.15;31.13;103088.72;5047035;28;19917;-77
2024/01/28 04:54:49;;;;;;;;;;;;;;;20.16;31.17;103076.06;5045820;28;19914;-76
2024/01/28 04:57:15;;;;;;;;;;;;;;;20.16;31.05;103074.22;5044028;28;19913;-77
2024/01/28 04:59:40;;;;;;;;;;;;;;;20.18;31.06;103074.13;5039621;28;20012;-77
2024/01/28 05:02:06;;;;;;;;;;;;;;;20.19;31.32;103070.44;5040514;28;19924;-77
2024/01/28 05:04:32;;;;;;;;;;;;;;;20.19;31.10;103067.72;5044841;28;19917;-77
2024/01/28 05:06:57;;;;;;;;;;;;;;;20.20;31.02;103064.88;5044795;28;19975;-78
2024/01/28 05:09:22;;;;;;;;;;;;;;;20.20;30.93;103070.28;5040742;28;19944;-78
2024/01/28 05:11:47;;;;;;;;;;;;;;;20.21;31.19;103063.91;5039009;28;19917;-76
2024/01/28 05:14:12;;;;;;;;;;;;;;;20.21;30.75;103063.91;5039381;28;19939;-77
2024/01/28 05:16:38;;;;;;;;;;;;;;;20.23;31.18;103059.25;5040996;28;19927;-78
2024/01/28 05:19:06;;;;;;;;;;;;;;;20.24;30.94;103052.00;5045072;28;19925;-77
2024/01/28 05:21:31;;;;;;;;;;;;;;;20.25;31.08;103053.72;5037842;28;19940;-76
2024/01/28 05:23:57;;;;;;;;;;;;;;;20.26;30.80;103055.41;5034144;28;19913;-77
2024/01/28 05:26:22;;;;;;;;;;;;;;;20.28;31.18;103050.75;5043440;28;19940;-77
2024/01/28 05:28:47;;;;;;;;;;;;;;;20.28;31.27;103048.06;5042818;28;19921;-78
2024/01/28 05:31:12;;;;;;;;;;;;;;;20.30;30.90;103046.06;5044055;28;19913;-76
2024/01/28 05:33:37;;;;;;;;;;;;;;;20.32;30.98;103032.47;5042134;28;19921;-78
2024/01/28 05:36:15;;;;;;;;;;;;;;;20.34;31.10;103035.88;5032719;28;19917;-78
2024/01/28 05:38:41;;;;;;;;;;;;;;;20.37;30.85;103028.38;5039278;28;19929;-76
2024/01/28 05:41:06;;;;;;;;;;;;;;;20.40;31.26;103021.88;5039305;28;20529;-75
2024/01/28 05:43:32;;;;;;;;;;;;;;;20.42;31.06;103017.19;5042214;28;19920;-75
2024/01/28 05:45:57;;;;;;;;;;;;;;;20.44;31.37;103015.25;5041122;28;19980;-75
2024/01/28 05:48:23;;;;;;;;;;;;;;;20.47;31.17;103018.53;5041455;28;19944;-74
2024/01/28 05:50:48;;;;;;;;;;;;;;;20.50;31.18;103013.88;5046754;28;19924;-75
2024/01/28 05:53:13;;;;;;;;;;;;;;;20.52;31.46;103020.91;5042174;28;19925;-75
2024/01/28 05:55:38;;;;;;;;;;;;;;;20.54;31.29;103016.22;5042865;28;19925;-75
2024/01/28 05:58:04;;;;;;;;;;;;;;;20.56;31.38;103006.16;5040371;28;19932;-75
2024/01/28 06:00:29;;;;;;;;;;;;;;;20.58;31.66;103000.59;5039990;28;19964;-74
2024/01/28 06:02:55;;;;;;;;;;;;;;;20.61;31.41;103000.34;5041512;28;19917;-74
2024/01/28 06:05:20;;;;;;;;;;;;;;;20.64;31.45;102995.50;5043860;28;19917;-75
2024/01/28 06:07:45;;;;;;;;;;;;;;;20.66;31.73;102987.28;5041962;28;19928;-73
2024/01/28 06:10:11;;;;;;;;;;;;;;;20.68;31.39;102998.81;5033150;28;19925;-73
2024/01/28 06:12:36;;;;;;;;;;;;;;;20.71;31.52;102994.03;5032719;28;19972;-74
2024/01/28 06:15:06;;;;;;;;;;;;;;;20.72;31.31;102986.75;5045604;28;19920;-75
2024/01/28 06:17:31;;;;;;;;;;;;;;;20.76;31.44;102995.47;5037743;28;19921;-75
2024/01/28 06:19:56;;;;;;;;;;;;;;;20.78;31.43;102994.38;5043749;28;19917;-74
2024/01/28 06:22:21;;;;;;;;;;;;;;;20.79;31.38;102987.13;5038592;28;20358;-75
2024/01/28 06:24:46;;;;;;;;;;;;;;;20.81;31.36;102985.13;5034948;28;19959;-76
2024/01/28 06:27:12;;;;;;;;;;;;;;;20.83;31.34;102977.75;5032393;28;20795;-75
2024/01/28 06:29:37;;;;;;;;;;;;;;;20.85;31.46;102975.75;5041965;28;19924;-76
2024/01/28 06:32:02;;;;;;;;;;;;;;;20.87;31.46;102982.75;5041729;28;19963;-75
2024/01/28 06:34:27;;;;;;;;;;;;;;;20.89;31.17;102977.22;5030450;28;19917;-75
2024/01/28 06:36:53;;;;;;;;;;;;;;;20.90;31.18;102968.13;5037053;28;19984;-75
2024/01/28 06:39:18;;;;;;;;;;;;;;;20.91;31.25;102975.25;5043662;28;19932;-75
2024/01/28 06:41:43;;;;;;;;;;;;;;;20.93;31.42;102973.25;5036779;28;19917;-75
2024/01/28 06:44:08;;;;;;;;;;;;;;;20.95;31.47;102971.28;5043196;28;19913;-74
2024/01/28 06:46:34;;;;;;;;;;;;;;;20.97;31.43;102974.72;5036659;28;19917;-73
2024/01/28 06:48:59;;;;;;;;;;;;;;;20.99;31.03;102967.34;5042536;28;20332;-73
2024/01/28 06:51:24;;;;;;;;;;;;;;;21.02;31.28;102968.91;5033329;28;20335;-73
2024/01/28 06:53:51;;;;;;;;;;;;;;;21.04;31.16;102966.94;5031780;28;19913;-73
2024/01/28 06:56:17;;;;;;;;;;;;;;;21.06;31.18;102962.25;5038772;28;19917;-73
2024/01/28 06:58:43;;;;;;;;;;;;;;;21.09;31.18;102962.84;5038562;28;19945;-73
2024/01/28 07:01:09;;;;;;;;;;;;;;;21.11;31.44;102963.56;5048832;28;19961;-73
2024/01/28 07:03:35;;;;;;;;;;;;;;;21.12;31.23;102965.28;5045336;28;19913;-73
2024/01/28 07:06:00;;;;;;;;;;;;;;;21.14;31.16;102962.44;5041280;28;19935;-74
2024/01/28 07:08:25;;;;;;;;;;;;;;;21.16;31.22;102965.88;5042329;28;20519;-74
2024/01/28 07:10:50;;;;;;;;;;;;;;;21.16;31.20;102969.44;5041426;28;19936;-76
2024/01/28 07:13:16;;;;;;;;;;;;;;;21.18;31.07;102974.69;5052258;28;19948;-74
2024/01/28 07:15:41;;;;;;;;;;;;;;;21.18;30.97;102974.69;5040440;28;20666;-73
2024/01/28 07:18:07;;;;;;;;;;;;;;;21.22;30.97;102984.25;5032913;28;20516;-73
2024/01/28 07:20:32;;;;;;;;;;;;;;;21.23;30.99;102992.22;5031810;28;19917;-73
2024/01/28 07:22:57;;;;;;;;;;;;;;;21.27;31.27;102991.97;5038767;28;19987;-73
2024/01/28 07:25:22;;;;;;;;;;;;;;;21.29;31.19;102985.44;5039304;28;19931;-74
2024/01/28 07:27:47;;;;;;;;;;;;;;;21.30;31.07;102981.75;5034946;28;19921;-73
2024/01/28 07:30:13;;;;;;;;;;;;;;;21.35;31.01;102989.50;5034883;28;19913;-73
2024/01/28 07:32:38;;;;;;;;;;;;;;;21.37;30.97;102984.81;5038553;28;19913;-73
2024/01/28 07:35:04;;;;;;;;;;;;;;;21.40;30.83;102985.38;5041074;28;19918;-74
2024/01/28 07:37:29;;;;;;;;;;;;;;;21.42;30.72;102986.13;5033711;28;19913;-74
2024/01/28 07:39:54;;;;;;;;;;;;;;;21.45;30.88;102983.16;5038604;28;19917;-73
2024/01/28 07:42:19;;;;;;;;;;;;;;;21.46;30.57;102984.84;5038835;28;19920;-75
2024/01/28 07:44:45;;;;;;;;;;;;;;;21.50;30.75;102982.75;5035505;28;20290;-77
2024/01/28 07:47:10;;;;;;;;;;;;;;;21.51;30.78;102979.03;5036937;28;19955;-73
2024/01/28 07:49:35;;;;;;;;;;;;;;;21.54;30.37;102986.03;5040842;28;19940;-74
2024/01/28 07:52:00;;;;;;;;;;;;;;;21.57;30.48;102983.03;5021724;28;19913;-74
2024/01/28 07:54:25;;;;;;;;;;;;;;;21.58;30.63;102979.34;5040070;28;19936;-73
2024/01/28 07:56:51;;;;;;;;;;;;;;;21.59;30.41;102981.06;5036849;28;19913;-73
2024/01/28 07:59:17;;;;;;;;;;;;;;;21.60;30.29;102972.81;5047401;28;19944;-74
2024/01/28 08:01:42;;;;;;;;;;;;;;;21.61;30.58;102974.50;5043493;28;19917;-73
2024/01/28 08:04:07;;;;;;;;;;;;;;;21.63;30.21;102972.53;5042610;28;19928;-74
2024/01/28 08:06:32;;;;;;;;;;;;;;;21.66;30.39;102974.09;5036472;28;19917;-72
2024/01/28 08:08:58;;;;;;;;;;;;;;;21.68;30.24;102974.84;5040369;28;20047;-73
2024/01/28 08:11:23;;;;;;;;;;;;;;;21.69;30.21;102971.13;5047467;28;19917;-73
2024/01/28 08:13:48;;;;;;;;;;;;;;;21.71;30.03;102974.56;5047025;28;19910;-74
2024/01/28 08:16:13;;;;;;;;;;;;;;;21.72;30.14;102957.31;5043282;28;19928;-73
2024/01/28 08:18:39;;;;;;;;;;;;;;;21.73;30.20;102953.59;5039592;28;19936;-74
2024/01/28 08:21:04;;;;;;;;;;;;;;;21.76;30.15;102947.94;5037928;28;19924;-71
2024/01/28 08:23:29;;;;;;;;;;;;;;;21.78;30.06;102950.47;5042114;28;19917;-74
2024/01/28 08:25:55;;;;;;;;;;;;;;;21.79;30.10;102946.78;5052363;28;19966;-73
2024/01/28 08:28:21;;;;;;;;;;;;;;;21.79;29.88;102939.53;5046275;28;19920;-74
2024/01/28 08:30:46;;;;;;;;;;;;;;;21.80;29.82;102930.41;5034684;28;19925;-73
2024/01/28 08:33:11;;;;;;;;;;;;;;;21.82;29.98;102936.53;5038832;28;19913;-73
2024/01/28 08:35:37;;;;;;;;;;;;;;;21.84;29.82;102933.69;5039955;28;19914;-73
2024/01/28 08:38:03;;;;;;;;;;;;;;;21.85;29.64;102925.44;5043662;28;19921;-73
2024/01/28 08:40:28;;;;;;;;;;;;;;;21.86;29.76;102927.13;5040189;28;19944;-73
2024/01/28 08:42:53;;;;;;;;;;;;;;;21.89;29.62;102931.44;5037769;28;19977;-71
2024/01/28 08:45:19;;;;;;;;;;;;;;;21.89;29.85;102932.28;5046766;28;19950;-73
2024/01/28 08:47:44;;;;;;;;;;;;;;;21.89;29.68;102931.44;5045183;28;19933;-73
2024/01/28 08:50:09;;;;;;;;;;;;;;;21.91;29.85;102932.97;5042176;28;19917;-73
2024/01/28 08:52:35;;;;;;;;;;;;;;;21.92;29.52;102929.31;5039919;28;19923;-73
2024/01/28 08:55:00;;;;;;;;;;;;;;;21.95;29.34;102941.69;5040813;28;19921;-72
2024/01/28 08:57:25;;;;;;;;;;;;;;;21.96;29.51;102930.72;5037398;28;19922;-73
2024/01/28 08:59:50;;;;;;;;;;;;;;;;;;5037884;28;19925;-74
2024/01/28 09:02:15;;;;;;;;;;;;;;;;;;5044008;28;19917;-72
2024/01/28 09:04:41;;;;;;;;;;;;;;;21.98;29.42;102930.59;5041330;28;19920;-72
2024/01/28 09:07:06;;;;;;;;;;;;;;;22.00;29.32;102933.13;5036834;28;19921;-71
2024/01/28 09:09:31;;;;;;;;;;;;;;;22.02;29.74;102925.75;5047900;28;19925;-72
2024/01/28 09:11:56;;;;;;;;;;;;;;;22.02;29.76;102926.59;5043390;28;19913;-72
2024/01/28 09:14:22;;;;;;;;;;;;;;;22.01;29.45;102926.75;5044436;28;19917;-74
2024/01/28 09:16:47;;;;;;;;;;;;;;;22.02;29.58;102932.00;5042469;28;20020;-72
2024/01/28 09:19:12;;;;;;;;;;;;;;;22.01;29.27;102930.31;5039329;28;20385;-73
2024/01/28 09:21:37;;;;;;;;;;;;;;;22.02;29.70;102921.19;5043283;28;19944;-73
2024/01/28 09:24:03;;;;;;;;;;;;;;;22.04;29.40;102915.59;5039608;28;19917;-73
2024/01/28 09:26:28;;;;;;;;;;;;;;;22.05;29.25;102911.94;5039161;28;19949;-73
2024/01/28 09:28:53;;;;;;;;;;;;;;;22.07;29.50;102920.75;5038351;28;19913;-73
2024/01/28 09:31:18;;;;;;;;;;;;;;;22.08;29.41;102917.91;5036743;28;19913;-71
2024/01/28 09:33:43;;;;;;;;;;;;;;;22.10;29.51;102920.47;5038185;28;19924;-73
2024/01/28 09:36:08;;;;;;;;;;;;;;;22.12;29.15;102918.47;5045651;28;19923;-74
2024/01/28 09:38:34;;;;;;;;;;;;;;;22.13;29.09;102921.09;5048270;28;20379;-73
2024/01/28 09:41:23;;;;;;;;;;;;;;;22.14;29.06;102917.38;5039901;28;19944;-74
2024/01/28 09:43:48;;;;;;;;;;;;;;;22.15;29.30;102921.78;5038556;28;19922;-74
2024/01/28 09:46:13;;;;;;;;;;;;;;;22.16;29.46;102917.22;5032779;28;19914;-66
2024/01/28 09:48:38;;;;;;;;;;;;;;;21.59;31.00;102914.25;5037653;28;19913;-71
2024/01/28 09:51:04;;;;;;;;;;;;;;;21.79;30.26;102904.34;5040889;28;19912;-69
2024/01/28 09:53:29;;;;;;;;;;;;;;;21.96;30.28;102905.47;5034480;28;19924;-70
2024/01/28 09:55:54;;;;;;;;;;;;;;;22.12;29.46;102905.81;5041580;28;19940;-70
2024/01/28 09:58:19;;;;;;;;;;;;;;;22.21;29.55;102904.09;5041479;28;19921;-74
2024/01/28 10:00:45;;;;;;;;;;;;;;;22.26;29.49;102888.31;5037007;28;19917;-74
2024/01/28 10:03:11;;;;;;;;;;;;;;;22.29;29.66;102879.00;5041124;28;19928;-74
2024/01/28 10:05:36;;;;;;;;;;;;;;;22.32;29.58;102876.03;5037096;28;19914;-71
2024/01/28 10:08:02;;;;;;;;;;;;;;;22.33;29.59;102880.44;5041237;28;19921;-71
2024/01/28 10:10:28;;;;;;;;;;;;;;;22.39;29.61;102883.44;5025382;28;19914;-71
2024/01/28 10:12:53;;;;;;;;;;;;;;;22.43;29.37;102882.16;5036266;28;19924;-72
2024/01/28 10:15:19;;;;;;;;;;;;;;;22.49;29.19;102882.56;5024144;28;19921;-70
2024/01/28 10:17:48;;;;;;;;;;;;;;;22.54;29.03;102878.41;5037253;28;19918;-72
2024/01/28 10:20:14;;;;;;;;;;;;;;;22.58;28.98;102873.56;5043449;28;19941;-71
2024/01/28 10:22:39;;;;;;;;;;;;;;;22.62;29.20;102873.13;5041853;28;20425;-71
2024/01/28 10:25:05;;;;;;;;;;;;;;;22.65;28.77;102862.00;5040317;28;19921;-71
2024/01/28 10:27:30;;;;;;;;;;;;;;;22.70;28.79;102870.53;5040292;28;19952;-73
2024/01/28 10:29:55;;;;;;;;;;;;;;;22.75;28.55;102864.66;5034655;28;19953;-72
2024/01/28 10:32:21;;;;;;;;;;;;;;;22.78;28.61;102863.53;5051706;28;19938;-75
2024/01/28 10:34:46;;;;;;;;;;;;;;;22.80;28.82;102861.50;5040485;28;19917;-71
2024/01/28 10:37:12;;;;;;;;;;;;;;;22.79;28.45;102860.66;5034448;28;19957;-75
2024/01/28 10:39:37;;;;;;;;;;;;;;;22.80;28.74;102862.38;5031409;28;19917;-74
2024/01/28 10:42:03;;;;;;;;;;;;;;;22.83;28.81;102858.50;5037240;28;19961;-73
2024/01/28 10:44:28;;;;;;;;;;;;;;;22.84;29.11;102858.34;5037663;28;20008;-73
2024/01/28 10:46:56;;;;;;;;;;;;;;;22.85;29.05;102857.38;5039545;28;19924;-74
2024/01/28 10:49:25;;;;;;;;;;;;;;;22.88;29.05;102854.34;5010869;28;19919;-74
2024/01/28 10:51:52;;;;;;;;;;;;;;;22.90;28.92;102851.53;5038899;28;19913;-74
2024/01/28 10:54:18;;;;;;;;;;;;;;;22.97;28.78;102854.50;5042050;28;20272;-75
2024/01/28 10:56:43;;;;;;;;;;;;;;;23.00;28.93;102846.91;5039753;28;19959;-78
2024/01/28 10:59:08;;;;;;;;;;;;;;;23.05;28.67;102843.75;5038192;28;20294;-74
2024/01/28 11:01:34;;;;;;;;;;;;;;;23.05;28.73;102841.03;5038607;28;19920;-73
2024/01/28 11:03:59;;;;;;;;;;;;;;;23.06;28.93;102826.47;5035177;28;19925;-72
2024/01/28 11:06:25;;;;;;;;;;;;;;;23.05;28.98;102824.75;5037536;28;19913;-73
2024/01/28 11:08:54;;;;;;;;;;;;;;;23.06;29.06;102811.03;5039419;28;19925;-73
2024/01/28 11:11:19;;;;;;;;;;;;;;;23.07;29.05;102814.63;5037522;28;19917;-73
2024/01/28 11:13:44;;;;;;;;;;;;;;;23.05;29.03;102816.63;5034485;28;19982;-75
2024/01/28 11:16:10;;;;;;;;;;;;;;;23.05;29.06;102806.63;5041356;28;19914;-74
2024/01/28 11:18:35;;;;;;;;;;;;;;;23.07;28.92;102809.22;5045583;28;19924;-71
2024/01/28 11:21:11;;;;;;;;;;;;;;;23.08;29.27;102800.91;5038869;28;19913;-72
2024/01/28 11:23:47;;;;;;;;;;;;;;;23.11;29.04;102802.47;5040555;28;19917;-71
2024/01/28 11:26:16;;;;;;;;;;;;;;;23.06;29.26;102794.75;5037405;28;20286;-71
2024/01/28 11:28:48;;;;;;;;;;;;;;;23.00;29.20;102797.25;5037895;28;19917;-71
2024/01/28 11:31:21;;;;;;;;;;;;;;;22.95;29.31;102801.25;5040901;28;19913;-72
2024/01/28 11:33:46;;;;;;;;;;;;;;;22.88;29.48;102797.38;5042162;28;19913;-70
2024/01/28 11:36:11;;;;;;;;;;;;;;;22.83;29.62;102797.00;5038199;28;19954;-70
2024/01/28 11:38:36;;;;;;;;;;;;;;;22.78;29.93;102802.00;5032163;28;20374;-70
2024/01/28 11:41:02;;;;;;;;;;;;;;;22.72;29.83;102791.75;5033129;28;19913;-70
2024/01/28 11:43:27;;;;;;;;;;;;;;;22.67;30.02;102784.06;5026270;28;19924;-71
2024/01/28 11:45:52;;;;;;;;;;;;;;;22.63;29.97;102784.50;5046648;28;19913;-72
2024/01/28 11:48:18;;;;;;;;;;;;;;;22.61;29.99;102779.22;5043751;28;19917;-71
2024/01/28 11:50:44;;;;;;;;;;;;;;;22.61;30.32;102783.81;5037682;28;19991;-70
2024/01/28 11:53:09;;;;;;;;;;;;;;;22.60;29.99;102782.06;5038057;28;19913;-70
2024/01/28 11:55:34;;;;;;;;;;;;;;;22.57;30.18;102774.25;5034005;28;19923;-70
2024/01/28 11:58:00;;;;;;;;;;;;;;;22.54;30.08;102783.53;5038721;28;19928;-71
2024/01/28 12:00:26;;;;;;;;;;;;;;;22.52;30.45;102769.28;5037324;28;19917;-71
2024/01/28 12:02:51;;;;;;;;;;;;;;;22.50;30.43;102771.28;5040192;28;20004;-70
2024/01/28 12:05:16;;;;;;;;;;;;;;;22.48;30.32;102770.56;5043840;28;19914;-71
2024/01/28 12:07:41;;;;;;;;;;;;;;;22.46;30.71;102768.00;5042751;28;19975;-71
2024/01/28 12:10:08;;;;;;;;;;;;;;;22.44;30.40;102763.75;5039037;28;19926;-71
2024/01/28 12:12:36;;;;;;;;;;;;;;;22.42;30.58;102763.88;5034613;28;19913;-71
2024/01/28 12:15:04;;;;;;;;;;;;;;;22.41;30.53;102759.47;5035178;28;19945;-71
2024/01/28 12:17:51;;;;;;;;;;;;;;;22.42;30.73;102753.03;5028046;28;20328;-71
2024/01/28 12:20:22;;;;;;;;;;;;;;;22.43;30.82;102753.91;5037781;28;19932;-71
2024/01/28 12:22:48;;;;;;;;;;;;;;;22.40;30.62;102746.91;5040086;28;19914;-72
2024/01/28 12:25:13;;;;;;;;;;;;;;;22.46;30.69;102745.47;5032252;28;19916;-70
2024/01/28 12:27:39;;;;;;;;;;;;;;;22.47;30.72;102736.31;5041841;28;19924;-70
2024/01/28 12:30:05;;;;;;;;;;;;;;;22.49;30.93;102738.91;5037599;28;20499;-70